createdAt,value
2023-05-25T00:01:44.209Z,18.10
2023-05-25T00:04:17.654Z,17.80
2023-05-25T00:06:47.424Z,18.94
2023-05-25T00:09:15.647Z,19.89
2023-05-25T00:11:43.569Z,19.47
2023-05-25T00:14:11.508Z,18.50
2023-05-25T00:16:41.033Z,17.78
2023-05-25T00:19:10.834Z,17.83
2023-05-25T00:21:39.022Z,19.10
2023-05-25T00:24:07.670Z,19.97
2023-05-25T00:26:36.153Z,19.35
2023-05-25T00:29:04.915Z,18.41
2023-05-25T00:31:33.580Z,17.73
2023-05-25T00:34:01.788Z,18.20
2023-05-25T00:36:29.750Z,19.41
2023-05-25T00:38:57.799Z,19.85
2023-05-25T00:41:27.285Z,18.97
2023-05-25T00:43:55.280Z,18.09
2023-05-25T00:46:23.788Z,17.94
2023-05-25T00:48:54.831Z,19.09
2023-05-25T00:51:22.949Z,20.08
2023-05-25T00:53:50.975Z,19.79
2023-05-25T00:56:28.310Z,18.75
2023-05-25T00:58:59.162Z,17.92
2023-05-25T01:01:27.642Z,18.06
2023-05-25T01:03:57.840Z,19.27
2023-05-25T01:06:27.311Z,20.04
2023-05-25T01:09:00.769Z,19.36
2023-05-25T01:11:33.180Z,18.36
2023-05-25T01:14:01.834Z,17.98
2023-05-25T01:16:30.070Z,19.04
2023-05-25T01:18:58.187Z,20.04
2023-05-25T01:21:52.002Z,19.76
2023-05-25T01:24:32.866Z,18.60
2023-05-25T01:27:06.296Z,17.84
2023-05-25T01:29:35.396Z,18.44
2023-05-25T01:32:04.575Z,19.62
2023-05-25T01:34:32.830Z,20.01
2023-05-25T01:37:00.905Z,19.05
2023-05-25T01:39:28.863Z,18.16
2023-05-25T01:41:56.738Z,17.97
2023-05-25T01:44:26.095Z,19.08
2023-05-25T01:47:03.878Z,20.05
2023-05-25T01:50:23.156Z,19.81
2023-05-25T01:53:04.078Z,18.48
2023-05-25T01:55:48.438Z,17.88
2023-05-25T01:58:17.182Z,18.85
2023-05-25T02:00:47.384Z,19.88
2023-05-25T02:03:15.855Z,19.97
2023-05-25T02:05:44.054Z,18.96
2023-05-25T02:08:12.167Z,18.09
2023-05-25T02:10:39.998Z,18.02
2023-05-25T02:13:08.000Z,19.13
2023-05-25T02:15:36.062Z,20.04
2023-05-25T02:18:05.880Z,19.84
2023-05-25T02:20:33.783Z,18.81
2023-05-25T02:23:01.819Z,17.95
2023-05-25T02:25:29.740Z,17.86
2023-05-25T02:27:57.786Z,19.02
2023-05-25T02:30:25.859Z,19.92
2023-05-25T02:32:54.156Z,19.59
2023-05-25T02:35:22.817Z,18.55
2023-05-25T02:37:51.223Z,17.78
2023-05-25T02:40:19.375Z,18.21
2023-05-25T02:42:47.255Z,19.36
2023-05-25T02:45:15.506Z,19.84
2023-05-25T02:47:43.451Z,18.95
2023-05-25T02:50:11.503Z,18.02
2023-05-25T02:52:39.927Z,18.12
2023-05-25T02:55:10.391Z,19.21
2023-05-25T02:57:39.041Z,19.91
2023-05-25T03:00:07.829Z,19.18
2023-05-25T03:02:35.728Z,18.21
2023-05-25T03:05:04.779Z,17.65
2023-05-25T03:07:33.259Z,18.47
2023-05-25T03:10:01.134Z,19.51
2023-05-25T03:12:29.155Z,19.26
2023-05-25T03:14:57.290Z,18.25
2023-05-25T03:17:25.160Z,17.51
2023-05-25T03:19:53.299Z,17.46
2023-05-25T03:22:21.204Z,18.62
2023-05-25T03:24:50.265Z,19.58
2023-05-25T03:27:18.327Z,19.19
2023-05-25T03:29:49.217Z,18.18
2023-05-25T03:32:17.676Z,17.51
2023-05-25T03:34:45.793Z,18.05
2023-05-25T03:37:13.767Z,19.13
2023-05-25T03:39:41.605Z,19.49
2023-05-25T03:42:09.641Z,18.62
2023-05-25T03:44:39.308Z,17.79
2023-05-25T03:47:08.976Z,17.64
2023-05-25T03:49:36.811Z,18.81
2023-05-25T03:52:06.316Z,19.64
2023-05-25T03:54:34.278Z,18.99
2023-05-25T03:57:03.805Z,18.11
2023-05-25T03:59:31.913Z,17.52
2023-05-25T04:01:59.851Z,17.23
2023-05-25T04:04:28.354Z,18.24
2023-05-25T04:06:56.423Z,19.15
2023-05-25T04:09:24.462Z,18.51
2023-05-25T04:11:52.524Z,17.78
2023-05-25T04:14:21.513Z,17.30
2023-05-25T04:16:49.519Z,17.42
2023-05-25T04:19:17.617Z,18.77
2023-05-25T04:21:45.678Z,19.49
2023-05-25T04:24:13.594Z,18.83
2023-05-25T04:26:41.573Z,18.18
2023-05-25T04:29:10.104Z,17.77
2023-05-25T04:31:39.257Z,17.50
2023-05-25T04:34:09.680Z,17.31
2023-05-25T04:36:38.980Z,17.67
2023-05-25T04:39:07.540Z,19.16
2023-05-25T04:41:37.753Z,19.84
2023-05-25T04:44:09.895Z,19.26
2023-05-25T04:46:39.180Z,18.72
2023-05-25T04:49:08.654Z,18.41
2023-05-25T04:51:37.499Z,18.19
2023-05-25T04:54:06.057Z,18.05
2023-05-25T04:56:34.114Z,17.95
2023-05-25T04:59:01.972Z,17.88
2023-05-25T05:01:30.984Z,17.83
2023-05-25T05:03:59.076Z,17.80
2023-05-25T05:06:27.311Z,17.77
2023-05-25T05:08:55.153Z,17.72
2023-05-25T05:11:23.668Z,17.68
2023-05-25T05:13:51.501Z,17.65
2023-05-25T05:16:19.491Z,17.62
2023-05-25T05:18:47.473Z,17.60
2023-05-25T05:21:15.421Z,18.03
2023-05-25T05:23:43.889Z,19.58
2023-05-25T05:26:15.526Z,20.50
2023-05-25T05:28:43.429Z,20.10
2023-05-25T05:31:12.346Z,19.69
2023-05-25T05:33:40.466Z,19.47
2023-05-25T05:36:09.122Z,19.35
2023-05-25T05:38:38.214Z,19.28
2023-05-25T05:41:14.161Z,19.22
2023-05-25T05:43:43.842Z,19.18
2023-05-25T05:46:11.712Z,19.15
2023-05-25T05:48:39.800Z,19.16
2023-05-25T05:51:07.716Z,19.21
2023-05-25T05:53:35.856Z,19.26
2023-05-25T05:56:04.132Z,19.34
2023-05-25T05:58:32.575Z,19.43
2023-05-25T06:01:01.524Z,19.55
2023-05-25T06:03:29.386Z,19.66
2023-05-25T06:05:57.247Z,19.78
2023-05-25T06:08:25.222Z,19.91
2023-05-25T06:10:53.275Z,20.06
2023-05-25T06:13:21.448Z,20.21
2023-05-25T06:15:49.237Z,20.37
2023-05-25T06:18:17.036Z,20.55
2023-05-25T06:20:44.996Z,20.71
2023-05-25T06:23:14.143Z,20.88
2023-05-25T06:25:42.175Z,21.12
2023-05-25T06:28:10.310Z,21.39
2023-05-25T06:30:38.408Z,21.60
2023-05-25T06:33:06.218Z,21.75
2023-05-25T06:35:34.063Z,21.87
2023-05-25T06:38:03.153Z,21.98
2023-05-25T06:40:31.400Z,22.09
2023-05-25T06:42:59.278Z,22.18
2023-05-25T06:45:27.153Z,22.27
2023-05-25T06:47:55.155Z,22.35
2023-05-25T06:50:23.179Z,22.45
2023-05-25T06:52:51.306Z,22.59
2023-05-25T06:55:19.189Z,22.74
2023-05-25T06:57:47.174Z,22.83
2023-05-25T07:00:16.509Z,22.82
2023-05-25T07:02:44.384Z,22.85
2023-05-25T07:05:12.523Z,22.92
2023-05-25T07:07:40.502Z,23.02
2023-05-25T07:10:09.478Z,23.12
2023-05-25T07:12:37.341Z,23.15
2023-05-25T07:15:06.409Z,23.12
2023-05-25T07:17:36.488Z,23.07
2023-05-25T07:20:06.492Z,23.06
2023-05-25T07:22:34.941Z,22.99
2023-05-25T07:25:02.905Z,22.93
2023-05-25T07:27:31.580Z,22.91
2023-05-25T07:29:59.579Z,22.88
2023-05-25T07:32:27.450Z,22.88
2023-05-25T07:34:55.387Z,22.88
2023-05-25T07:37:23.374Z,22.91
2023-05-25T07:39:51.399Z,23.01
2023-05-25T07:42:21.150Z,23.14
2023-05-25T07:44:49.342Z,23.30
2023-05-25T07:47:17.318Z,23.50
2023-05-25T07:49:45.142Z,23.71
2023-05-25T07:52:13.137Z,23.90
2023-05-25T07:54:41.224Z,24.07
2023-05-25T07:57:09.150Z,24.25
2023-05-25T07:59:37.293Z,24.37
2023-05-25T08:02:05.170Z,24.51
2023-05-25T08:04:33.925Z,24.69
2023-05-25T08:07:02.683Z,24.82
2023-05-25T08:09:30.552Z,24.86
2023-05-25T08:12:21.279Z,24.88
2023-05-25T08:14:46.376Z,24.90
2023-05-25T08:17:14.378Z,24.95
2023-05-25T08:19:42.379Z,25.01
2023-05-25T08:22:11.611Z,25.01
2023-05-25T08:24:39.685Z,24.97
2023-05-25T08:27:07.644Z,24.97
2023-05-25T08:29:35.875Z,25.00
2023-05-25T08:32:04.731Z,24.93
2023-05-25T08:34:32.757Z,24.84
2023-05-25T08:37:01.360Z,24.84
2023-05-25T08:39:29.258Z,24.85
2023-05-25T08:41:57.255Z,24.75
2023-05-25T08:44:27.366Z,24.61
2023-05-25T08:46:57.228Z,24.49
2023-05-25T08:49:26.072Z,24.47
2023-05-25T08:51:55.175Z,24.51
2023-05-25T08:54:26.449Z,24.49
2023-05-25T08:56:59.342Z,24.37
2023-05-25T08:59:51.796Z,24.17
2023-05-25T09:02:25.110Z,23.98
2023-05-25T09:04:53.265Z,23.77
2023-05-25T09:07:21.365Z,23.57
2023-05-25T09:09:49.257Z,23.40
2023-05-25T09:12:17.266Z,23.16
2023-05-25T09:14:48.088Z,22.92
2023-05-25T09:17:18.600Z,22.74
2023-05-25T09:19:47.248Z,22.65
2023-05-25T09:22:16.561Z,22.56
2023-05-25T09:24:45.581Z,22.53
2023-05-25T09:27:22.440Z,22.51
2023-05-25T09:29:51.138Z,22.46
2023-05-25T09:32:19.987Z,22.46
2023-05-25T09:34:48.614Z,22.51
2023-05-25T09:37:18.998Z,22.55
2023-05-25T09:39:48.015Z,22.59
2023-05-25T09:42:17.196Z,22.61
2023-05-25T09:44:45.248Z,22.51
2023-05-25T09:47:14.035Z,22.41
2023-05-25T09:49:44.408Z,22.26
2023-05-25T09:52:12.623Z,22.17
2023-05-25T09:54:44.440Z,22.17
2023-05-25T09:57:12.282Z,22.19
2023-05-25T09:59:40.148Z,22.29
2023-05-25T10:02:08.019Z,22.36
2023-05-25T10:04:35.987Z,22.40
2023-05-25T10:07:04.837Z,22.42
2023-05-25T10:09:41.756Z,22.38
2023-05-25T10:12:10.366Z,22.41
2023-05-25T10:14:38.987Z,22.50
2023-05-25T10:17:10.502Z,22.61
2023-05-25T10:19:42.891Z,22.59
2023-05-25T10:22:22.205Z,22.53
2023-05-25T10:25:05.842Z,22.47
2023-05-25T10:27:41.390Z,22.41
2023-05-25T10:30:10.544Z,22.34
2023-05-25T10:32:38.621Z,22.34
2023-05-25T10:35:07.452Z,22.38
2023-05-25T10:37:36.241Z,22.43
2023-05-25T10:40:08.798Z,22.45
2023-05-25T10:42:38.016Z,22.44
2023-05-25T10:45:08.801Z,22.43
2023-05-25T10:47:42.390Z,22.41
2023-05-25T10:50:34.136Z,22.41
2023-05-25T10:53:13.769Z,22.51
2023-05-25T10:55:54.992Z,22.60
2023-05-25T10:58:23.709Z,22.61
2023-05-25T11:01:04.325Z,22.59
2023-05-25T11:03:44.872Z,22.58
2023-05-25T11:06:21.795Z,22.59
2023-05-25T11:08:59.881Z,22.52
2023-05-25T11:11:42.625Z,22.49
2023-05-25T11:14:27.781Z,22.49
2023-05-25T11:17:14.654Z,22.46
2023-05-25T11:19:51.910Z,22.43
2023-05-25T11:22:32.045Z,22.38
2023-05-25T11:25:01.665Z,22.36
2023-05-25T11:27:32.100Z,22.38
2023-05-25T11:30:00.632Z,22.40
2023-05-25T11:32:29.348Z,22.44
2023-05-25T11:34:58.545Z,22.55
2023-05-25T11:37:33.385Z,22.71
2023-05-25T11:40:01.562Z,22.90
2023-05-25T11:42:29.561Z,23.10
2023-05-25T11:45:02.736Z,23.31
2023-05-25T11:47:32.727Z,23.45
2023-05-25T11:50:01.743Z,23.58
2023-05-25T11:52:29.728Z,23.72
2023-05-25T11:54:57.631Z,23.84
2023-05-25T11:57:26.345Z,23.94
2023-05-25T11:59:57.610Z,24.03
2023-05-25T12:02:25.696Z,24.14
2023-05-25T12:05:01.498Z,24.24
2023-05-25T12:07:34.238Z,24.34
2023-05-25T12:10:11.922Z,24.41
2023-05-25T12:12:51.773Z,24.49
2023-05-25T12:15:24.364Z,24.55
2023-05-25T12:17:53.952Z,24.55
2023-05-25T12:20:22.452Z,24.53
2023-05-25T12:22:50.781Z,24.50
2023-05-25T12:25:21.566Z,24.51
2023-05-25T12:27:49.755Z,24.52
2023-05-25T12:30:17.974Z,24.55
2023-05-25T12:33:15.785Z,24.59
2023-05-25T12:35:47.569Z,24.67
2023-05-25T12:38:21.553Z,24.70
2023-05-25T12:41:08.517Z,24.73
2023-05-25T12:43:43.253Z,24.76
2023-05-25T12:46:11.841Z,24.79
2023-05-25T12:48:40.216Z,24.81
2023-05-25T12:51:10.588Z,24.84
2023-05-25T12:53:51.844Z,24.86
2023-05-25T12:56:19.800Z,24.86
2023-05-25T12:58:47.750Z,24.83
2023-05-25T13:01:15.621Z,24.82
2023-05-25T13:03:43.863Z,24.81
2023-05-25T13:06:12.598Z,24.79
2023-05-25T13:08:40.837Z,24.75
2023-05-25T13:11:09.057Z,24.70
2023-05-25T13:13:37.536Z,24.66
2023-05-25T13:16:05.793Z,24.66
2023-05-25T13:18:33.968Z,24.61
2023-05-25T13:21:02.351Z,24.56
2023-05-25T13:23:31.593Z,24.53
2023-05-25T13:25:59.960Z,24.48
2023-05-25T13:28:30.756Z,24.43
2023-05-25T13:30:58.784Z,24.41
2023-05-25T13:33:27.014Z,24.38
2023-05-25T13:35:59.237Z,24.28
2023-05-25T13:38:29.643Z,24.20
2023-05-25T13:40:58.124Z,24.11
2023-05-25T13:43:26.690Z,24.01
2023-05-25T13:45:54.840Z,23.92
2023-05-25T13:48:22.900Z,23.84
2023-05-25T13:50:51.251Z,23.75
2023-05-25T13:53:19.329Z,23.67
2023-05-25T13:55:47.769Z,23.60
2023-05-25T13:58:15.634Z,23.55
2023-05-25T14:00:43.930Z,23.52
2023-05-25T14:03:12.621Z,23.44
2023-05-25T14:05:40.841Z,23.36
2023-05-25T14:08:09.172Z,23.29
2023-05-25T14:10:38.951Z,23.24
2023-05-25T14:13:06.786Z,23.21
2023-05-25T14:15:34.714Z,23.20
2023-05-25T14:18:02.811Z,23.16
2023-05-25T14:20:33.921Z,23.08
2023-05-25T14:23:01.938Z,23.03
2023-05-25T14:25:29.724Z,23.03
2023-05-25T14:27:57.995Z,23.01
2023-05-25T14:30:25.913Z,22.98
2023-05-25T14:32:53.889Z,22.90
2023-05-25T14:35:21.822Z,22.80
2023-05-25T14:37:49.843Z,22.74
2023-05-25T14:40:17.793Z,22.68
2023-05-25T14:42:45.663Z,22.66
2023-05-25T14:45:15.874Z,22.65
2023-05-25T14:47:44.541Z,22.62
2023-05-25T14:50:12.532Z,22.57
2023-05-25T14:52:42.177Z,22.51
2023-05-25T14:55:10.652Z,22.49
2023-05-25T14:57:38.772Z,22.45
2023-05-25T15:00:07.743Z,22.40
2023-05-25T15:02:35.833Z,22.35
2023-05-25T15:05:04.074Z,22.32
2023-05-25T15:07:31.950Z,22.29
2023-05-25T15:09:59.991Z,22.26
2023-05-25T15:12:27.839Z,22.25
2023-05-25T15:14:55.765Z,22.24
2023-05-25T15:17:23.874Z,22.25
2023-05-25T15:19:51.709Z,22.25
2023-05-25T15:22:19.699Z,22.26
2023-05-25T15:24:47.718Z,22.26
2023-05-25T15:27:15.776Z,22.29
2023-05-25T15:29:43.709Z,22.31
2023-05-25T15:32:14.029Z,22.30
2023-05-25T15:34:42.202Z,22.30
2023-05-25T15:37:11.913Z,22.31
2023-05-25T15:39:40.881Z,22.32
2023-05-25T15:42:08.932Z,22.36
2023-05-25T15:44:37.020Z,22.37
2023-05-25T15:47:05.119Z,22.37
2023-05-25T15:49:36.842Z,22.38
2023-05-25T15:52:05.380Z,22.38
2023-05-25T15:54:33.297Z,22.39
2023-05-25T15:57:02.232Z,22.38
2023-05-25T15:59:30.197Z,22.39
2023-05-25T16:01:58.077Z,22.40
2023-05-25T16:04:26.578Z,22.39
2023-05-25T16:06:54.507Z,22.38
2023-05-25T16:09:22.521Z,22.37
2023-05-25T16:11:50.392Z,22.37
2023-05-25T16:14:18.325Z,22.36
2023-05-25T16:16:46.270Z,22.34
2023-05-25T16:19:14.498Z,22.35
2023-05-25T16:21:42.406Z,22.33
2023-05-25T16:24:10.803Z,22.29
2023-05-25T16:26:38.689Z,22.25
2023-05-25T16:29:06.500Z,22.23
2023-05-25T16:31:34.826Z,22.20
2023-05-25T16:34:05.984Z,22.16
2023-05-25T16:36:33.854Z,22.13
2023-05-25T16:39:01.853Z,22.11
2023-05-25T16:41:29.828Z,22.09
2023-05-25T16:43:57.789Z,22.06
2023-05-25T16:46:25.890Z,22.03
2023-05-25T16:48:53.890Z,21.99
2023-05-25T16:51:21.808Z,21.96
2023-05-25T16:53:51.027Z,21.93
2023-05-25T16:56:21.529Z,21.91
2023-05-25T16:58:49.516Z,21.89
2023-05-25T17:01:17.517Z,21.87
2023-05-25T17:03:45.561Z,21.84
2023-05-25T17:06:14.102Z,21.80
2023-05-25T17:08:41.997Z,21.78
2023-05-25T17:11:09.797Z,21.76
2023-05-25T17:13:38.068Z,21.71
2023-05-25T17:16:06.223Z,21.67
2023-05-25T17:18:34.262Z,21.63
2023-05-25T17:21:02.274Z,21.60
2023-05-25T17:23:30.182Z,21.56
2023-05-25T17:25:58.576Z,21.53
2023-05-25T17:28:27.819Z,21.50
2023-05-25T17:30:56.691Z,21.46
2023-05-25T17:33:26.117Z,21.44
2023-05-25T17:35:54.085Z,21.41
2023-05-25T17:38:22.343Z,21.37
2023-05-25T17:40:50.455Z,21.34
2023-05-25T17:43:19.258Z,21.30
2023-05-25T17:45:48.010Z,21.26
2023-05-25T17:48:16.182Z,21.22
2023-05-25T17:50:44.133Z,21.17
2023-05-25T17:53:12.898Z,21.12
2023-05-25T17:55:40.946Z,21.08
2023-05-25T17:58:08.823Z,21.03
2023-05-25T18:00:37.430Z,20.97
2023-05-25T18:03:05.622Z,20.92
2023-05-25T18:05:33.770Z,20.87
2023-05-25T18:08:01.920Z,20.81
2023-05-25T18:10:30.392Z,20.76
2023-05-25T18:12:58.359Z,20.71
2023-05-25T18:15:26.510Z,20.65
2023-05-25T18:17:54.580Z,20.59
2023-05-25T18:20:22.641Z,20.54
2023-05-25T18:22:50.709Z,20.48
2023-05-25T18:25:18.734Z,20.42
2023-05-25T18:27:47.192Z,20.36
2023-05-25T18:30:18.886Z,20.31
2023-05-25T18:32:47.359Z,20.25
2023-05-25T18:35:15.942Z,20.18
2023-05-25T18:37:44.216Z,20.11
2023-05-25T18:40:13.092Z,20.05
2023-05-25T18:42:41.505Z,19.97
2023-05-25T18:45:10.747Z,19.89
2023-05-25T18:47:39.508Z,19.82
2023-05-25T18:50:08.865Z,19.75
2023-05-25T18:52:37.042Z,19.66
2023-05-25T18:55:08.547Z,19.59
2023-05-25T18:57:37.458Z,19.51
2023-05-25T19:00:08.933Z,19.43
2023-05-25T19:02:38.662Z,19.35
2023-05-25T19:05:07.925Z,19.26
2023-05-25T19:07:47.000Z,19.18
2023-05-25T19:10:23.829Z,19.09
2023-05-25T19:12:52.083Z,19.02
2023-05-25T19:15:20.237Z,18.94
2023-05-25T19:17:48.382Z,18.86
2023-05-25T19:20:17.109Z,18.77
2023-05-25T19:22:45.298Z,18.70
2023-05-25T19:25:13.369Z,18.63
2023-05-25T19:27:41.398Z,18.55
2023-05-25T19:30:09.905Z,18.47
2023-05-25T19:32:38.212Z,18.38
2023-05-25T19:35:06.737Z,18.29
2023-05-25T19:37:37.835Z,18.21
2023-05-25T19:40:09.117Z,18.16
2023-05-25T19:42:38.000Z,18.09
2023-05-25T19:45:06.950Z,18.03
2023-05-25T19:47:35.325Z,17.96
2023-05-25T19:50:04.363Z,17.90
2023-05-25T19:52:32.858Z,17.82
2023-05-25T19:55:02.034Z,17.76
2023-05-25T19:57:32.304Z,17.70
2023-05-25T20:00:01.389Z,17.63
2023-05-25T20:02:30.094Z,17.56
2023-05-25T20:04:58.727Z,17.49
2023-05-25T20:07:27.143Z,17.43
2023-05-25T20:09:55.514Z,17.36
2023-05-25T20:12:24.033Z,17.30
2023-05-25T20:14:52.371Z,17.24
2023-05-25T20:17:21.366Z,17.18
2023-05-25T20:19:51.145Z,17.11
2023-05-25T20:22:19.931Z,17.07
2023-05-25T20:24:50.781Z,17.02
2023-05-25T20:27:19.430Z,16.96
2023-05-25T20:29:47.929Z,16.90
2023-05-25T20:32:16.323Z,16.84
2023-05-25T20:34:44.239Z,16.78
2023-05-25T20:37:12.307Z,16.72
2023-05-25T20:39:40.179Z,16.66
2023-05-25T20:42:08.185Z,16.61
2023-05-25T20:44:36.410Z,16.92
2023-05-25T20:47:05.190Z,18.23
2023-05-25T20:49:33.238Z,18.37
2023-05-25T20:52:01.357Z,17.86
2023-05-25T20:54:29.389Z,17.50
2023-05-25T20:56:57.376Z,17.27
2023-05-25T20:59:25.513Z,17.11
2023-05-25T21:01:53.670Z,17.41
2023-05-25T21:04:21.792Z,18.72
2023-05-25T21:06:49.923Z,18.94
2023-05-25T21:09:17.901Z,18.37
2023-05-25T21:11:45.842Z,17.94
2023-05-25T21:14:13.862Z,17.65
2023-05-25T21:16:42.115Z,17.43
2023-05-25T21:19:10.971Z,17.27
2023-05-25T21:21:39.114Z,17.52
2023-05-25T21:24:07.178Z,18.83
2023-05-25T21:26:35.455Z,19.24
2023-05-25T21:29:03.441Z,18.62
2023-05-25T21:31:31.515Z,18.09
2023-05-25T21:34:00.249Z,17.74
2023-05-25T21:36:28.521Z,17.48
2023-05-25T21:38:56.609Z,17.65
2023-05-25T21:41:26.289Z,18.93
2023-05-25T21:43:54.203Z,19.61
2023-05-25T21:46:22.141Z,18.98
2023-05-25T21:48:50.738Z,18.37
2023-05-25T21:51:19.519Z,17.94
2023-05-25T21:53:48.434Z,17.65
2023-05-25T21:56:17.140Z,17.42
2023-05-25T21:58:45.704Z,17.63
2023-05-25T22:03:55.382Z,19.73
2023-05-25T22:06:23.954Z,19.06
2023-05-25T22:08:51.822Z,18.41
2023-05-25T22:11:22.147Z,17.96
2023-05-25T22:13:50.137Z,17.65
2023-05-25T22:16:18.103Z,17.39
2023-05-25T22:18:46.095Z,17.58
2023-05-25T22:21:14.886Z,18.84
2023-05-25T22:23:42.793Z,19.37
2023-05-25T22:26:10.735Z,18.70
2023-05-25T22:28:38.625Z,18.07
2023-05-25T22:31:06.690Z,17.67
2023-05-25T22:33:34.668Z,17.38
2023-05-25T22:36:02.563Z,17.47
2023-05-25T22:38:30.465Z,18.73
2023-05-25T22:40:59.050Z,19.42
2023-05-25T22:43:27.129Z,18.77
2023-05-25T22:45:55.130Z,18.12
2023-05-25T22:48:23.129Z,17.67
2023-05-25T22:50:51.130Z,17.34
2023-05-25T22:53:19.241Z,17.09
2023-05-25T22:55:47.630Z,17.30
2023-05-25T22:58:15.680Z,18.58
2023-05-25T23:00:43.683Z,19.27
2023-05-25T23:03:11.692Z,18.58
2023-05-25T23:05:39.722Z,17.89
2023-05-25T23:08:08.741Z,17.43
2023-05-25T23:10:36.664Z,17.09
2023-05-25T23:13:06.328Z,16.82
2023-05-25T23:15:36.592Z,17.01
2023-05-25T23:18:04.560Z,18.25
2023-05-25T23:20:34.071Z,18.54
2023-05-25T23:23:02.093Z,17.83
2023-05-25T23:25:30.055Z,17.27
2023-05-25T23:27:58.030Z,16.87
2023-05-25T23:30:26.228Z,16.63
2023-05-25T23:32:54.266Z,17.45
2023-05-25T23:35:23.318Z,18.45
2023-05-25T23:37:52.139Z,18.01
2023-05-25T23:40:20.233Z,17.34
2023-05-25T23:42:48.120Z,16.87
2023-05-25T23:45:16.848Z,16.92
2023-05-25T23:47:44.909Z,18.14
2023-05-25T23:50:12.809Z,18.65
2023-05-25T23:52:41.719Z,17.91
2023-05-25T23:55:09.931Z,17.25
2023-05-25T23:57:38.409Z,16.78
